createdAt,value
2023-03-14T00:01:15.270Z,10.94
2023-03-14T00:03:41.938Z,10.91
2023-03-14T00:06:09.450Z,10.80
2023-03-14T00:08:36.595Z,11.05
2023-03-14T00:11:20.939Z,10.89
2023-03-14T00:13:51.881Z,10.78
2023-03-14T00:16:19.249Z,10.81
2023-03-14T00:18:46.794Z,11.01
2023-03-14T00:21:13.382Z,11.04
2023-03-14T00:23:41.659Z,11.27
2023-03-14T00:26:14.351Z,11.19
2023-03-14T00:28:43.052Z,11.18
2023-03-14T00:31:12.430Z,11.27
2023-03-14T00:33:39.295Z,11.54
2023-03-14T00:36:09.927Z,11.55
2023-03-14T00:38:37.422Z,11.34
2023-03-14T00:41:08.174Z,11.36
2023-03-14T00:43:35.509Z,11.10
2023-03-14T00:46:02.260Z,10.98
2023-03-14T00:48:29.153Z,11.04
2023-03-14T00:50:55.696Z,11.26
2023-03-14T00:53:22.732Z,11.22
2023-03-14T00:55:49.766Z,11.03
2023-03-14T00:58:18.644Z,11.01
2023-03-14T01:00:46.904Z,11.02
2023-03-14T01:03:15.019Z,11.02
2023-03-14T01:05:42.112Z,11.08
2023-03-14T01:08:09.829Z,11.20
2023-03-14T01:10:40.034Z,11.09
2023-03-14T01:13:06.841Z,10.94
2023-03-14T01:15:34.744Z,10.83
2023-03-14T01:18:01.822Z,10.89
2023-03-14T01:20:28.864Z,10.95
2023-03-14T01:22:55.348Z,10.82
2023-03-14T01:25:22.336Z,10.80
2023-03-14T01:27:49.299Z,10.87
2023-03-14T01:30:15.923Z,10.77
2023-03-14T01:32:42.851Z,10.70
2023-03-14T01:35:09.728Z,10.86
2023-03-14T01:37:36.606Z,10.67
2023-03-14T01:40:06.170Z,10.60
2023-03-14T01:42:33.210Z,10.84
2023-03-14T01:45:01.852Z,10.82
2023-03-14T01:47:28.531Z,10.83
2023-03-14T01:49:59.510Z,10.78
2023-03-14T01:52:42.767Z,10.78
2023-03-14T01:55:25.473Z,10.85
2023-03-14T01:57:59.431Z,10.83
2023-03-14T02:00:26.409Z,10.86
2023-03-14T02:02:58.193Z,10.96
2023-03-14T02:05:29.418Z,11.08
2023-03-14T02:07:58.963Z,11.05
2023-03-14T02:10:29.394Z,11.02
2023-03-14T02:12:57.851Z,11.06
2023-03-14T02:15:24.589Z,11.16
2023-03-14T02:17:52.148Z,11.06
2023-03-14T02:20:25.120Z,11.10
2023-03-14T02:22:52.795Z,11.11
2023-03-14T02:25:25.621Z,11.05
2023-03-14T02:27:52.417Z,11.03
2023-03-14T02:30:24.910Z,10.93
2023-03-14T02:33:14.060Z,10.87
2023-03-14T02:35:55.562Z,10.93
2023-03-14T02:38:31.115Z,10.97
2023-03-14T02:40:57.640Z,10.66
2023-03-14T02:43:24.330Z,10.42
2023-03-14T02:45:51.823Z,10.31
2023-03-14T02:48:42.295Z,10.16
2023-03-14T02:51:09.017Z,10.39
2023-03-14T02:53:37.804Z,10.29
2023-03-14T02:56:05.004Z,10.03
2023-03-14T02:58:32.025Z,10.25
2023-03-14T03:00:58.750Z,10.36
2023-03-14T03:03:25.380Z,10.48
2023-03-14T03:05:54.057Z,10.39
2023-03-14T03:08:22.483Z,10.15
2023-03-14T03:10:49.360Z,10.42
2023-03-14T03:13:16.243Z,10.50
2023-03-14T03:15:43.045Z,10.33
2023-03-14T03:18:09.838Z,10.16
2023-03-14T03:20:36.600Z,10.32
2023-03-14T03:23:03.724Z,10.27
2023-03-14T03:25:30.979Z,10.33
2023-03-14T03:27:58.334Z,10.43
2023-03-14T03:30:24.875Z,10.42
2023-03-14T03:36:38.382Z,10.39
2023-03-14T03:39:04.964Z,10.35
2023-03-14T03:41:32.210Z,10.35
2023-03-14T03:43:58.682Z,10.34
2023-03-14T03:46:25.548Z,10.35
2023-03-14T03:49:00.311Z,10.36
2023-03-14T03:51:27.414Z,10.36
2023-03-14T03:53:54.273Z,10.39
2023-03-14T03:56:20.801Z,10.44
2023-03-14T03:58:47.437Z,10.44
2023-03-14T04:01:13.888Z,10.38
2023-03-14T04:03:41.459Z,10.41
2023-03-14T04:06:13.608Z,10.39
2023-03-14T04:08:44.466Z,10.34
2023-03-14T04:11:11.306Z,10.36
2023-03-14T04:13:38.095Z,10.52
2023-03-14T04:16:04.961Z,10.56
2023-03-14T04:18:31.576Z,10.65
2023-03-14T04:20:58.782Z,10.58
2023-03-14T04:23:25.552Z,10.60
2023-03-14T04:25:53.242Z,10.60
2023-03-14T04:28:20.108Z,10.62
2023-03-14T04:30:46.671Z,10.57
2023-03-14T04:33:17.941Z,10.62
2023-03-14T04:35:45.458Z,10.63
2023-03-14T04:38:12.530Z,10.62
2023-03-14T04:40:39.996Z,10.51
2023-03-14T04:43:07.713Z,10.53
2023-03-14T04:45:34.513Z,10.65
2023-03-14T04:48:01.385Z,10.65
2023-03-14T04:50:27.902Z,10.73
2023-03-14T04:52:54.688Z,10.68
2023-03-14T04:55:22.982Z,10.56
2023-03-14T04:57:51.184Z,10.62
2023-03-14T05:00:20.957Z,10.66
2023-03-14T05:02:47.799Z,10.56
2023-03-14T05:05:14.274Z,10.70
2023-03-14T05:07:40.973Z,10.65
2023-03-14T05:10:07.981Z,10.51
2023-03-14T05:12:34.799Z,10.60
2023-03-14T05:15:01.357Z,10.48
2023-03-14T05:17:27.901Z,10.30
2023-03-14T05:19:54.520Z,10.20
2023-03-14T05:22:21.230Z,10.20
2023-03-14T05:24:47.831Z,10.27
2023-03-14T05:27:14.462Z,10.23
2023-03-14T05:29:40.968Z,10.17
2023-03-14T05:32:07.382Z,10.15
2023-03-14T05:34:33.986Z,10.11
2023-03-14T05:37:00.755Z,9.99
2023-03-14T05:39:27.324Z,10.01
2023-03-14T05:41:56.698Z,9.86
2023-03-14T05:44:23.673Z,9.97
2023-03-14T05:46:50.465Z,9.90
2023-03-14T05:49:17.825Z,9.74
2023-03-14T05:54:17.470Z,9.88
2023-03-14T05:56:44.303Z,9.86
2023-03-14T05:59:10.855Z,9.80
2023-03-14T06:01:37.702Z,9.76
2023-03-14T06:04:04.111Z,9.72
2023-03-14T06:06:30.633Z,9.72
2023-03-14T06:08:59.906Z,9.85
2023-03-14T06:11:26.410Z,9.81
2023-03-14T06:13:53.092Z,9.61
2023-03-14T06:16:19.550Z,9.70
2023-03-14T06:18:47.664Z,9.63
2023-03-14T06:21:14.226Z,9.59
2023-03-14T06:23:40.940Z,9.53
2023-03-14T06:26:07.822Z,9.39
2023-03-14T06:28:34.617Z,9.40
2023-03-14T06:31:01.614Z,9.36
2023-03-14T06:33:28.055Z,9.28
2023-03-14T06:35:54.585Z,9.32
2023-03-14T06:38:21.005Z,9.41
2023-03-14T06:40:47.546Z,9.51
2023-03-14T06:43:14.078Z,9.56
2023-03-14T06:45:40.565Z,9.48
2023-03-14T06:48:07.185Z,9.22
2023-03-14T06:50:36.951Z,9.37
2023-03-14T06:53:05.738Z,9.22
2023-03-14T06:55:32.382Z,9.71
2023-03-14T06:57:59.842Z,9.76
2023-03-14T07:00:26.475Z,9.75
2023-03-14T07:03:01.856Z,9.80
2023-03-14T07:05:28.799Z,9.71
2023-03-14T07:07:55.547Z,9.68
2023-03-14T07:10:22.680Z,9.80
2023-03-14T07:12:50.231Z,9.99
2023-03-14T07:15:20.923Z,9.95
2023-03-14T07:17:49.416Z,9.99
2023-03-14T07:20:16.361Z,10.23
2023-03-14T07:22:43.302Z,10.05
2023-03-14T07:27:54.470Z,10.11
2023-03-14T07:30:21.128Z,10.37
2023-03-14T07:32:47.794Z,10.47
2023-03-14T07:35:14.298Z,10.45
2023-03-14T07:37:40.898Z,10.59
2023-03-14T07:40:08.195Z,10.76
2023-03-14T07:42:35.667Z,10.63
2023-03-14T07:45:02.213Z,10.60
2023-03-14T07:47:29.164Z,10.85
2023-03-14T07:49:55.930Z,10.84
2023-03-14T07:52:22.462Z,10.89
2023-03-14T07:54:48.998Z,10.80
2023-03-14T07:57:15.799Z,10.86
2023-03-14T07:59:42.341Z,10.98
2023-03-14T08:02:12.827Z,11.10
2023-03-14T08:04:40.817Z,11.21
2023-03-14T08:07:13.781Z,11.31
2023-03-14T08:09:42.402Z,11.25
2023-03-14T08:12:09.566Z,11.27
2023-03-14T08:14:36.478Z,11.51
2023-03-14T08:17:03.492Z,11.70
2023-03-14T08:19:29.996Z,11.74
2023-03-14T08:21:56.594Z,11.57
2023-03-14T08:24:23.567Z,11.81
2023-03-14T08:26:49.965Z,11.75
2023-03-14T08:29:16.704Z,12.13
2023-03-14T08:31:43.333Z,11.88
2023-03-14T08:34:09.902Z,13.77
2023-03-14T08:36:36.447Z,13.41
2023-03-14T08:39:04.834Z,13.21
2023-03-14T08:41:31.585Z,12.79
2023-03-14T08:43:58.485Z,13.32
2023-03-14T08:46:25.066Z,13.00
2023-03-14T08:48:52.174Z,12.72
2023-03-14T08:51:18.932Z,12.54
2023-03-14T08:53:46.000Z,12.66
2023-03-14T08:56:12.502Z,12.78
2023-03-14T08:58:39.833Z,13.00
2023-03-14T09:01:06.870Z,12.98
2023-03-14T09:03:33.399Z,13.10
2023-03-14T09:06:04.669Z,12.79
2023-03-14T09:08:31.447Z,12.66
2023-03-14T09:10:58.208Z,12.30
2023-03-14T09:13:24.818Z,12.28
2023-03-14T09:15:55.955Z,12.31
2023-03-14T09:18:23.517Z,12.44
2023-03-14T09:20:50.727Z,12.55
2023-03-14T09:23:17.313Z,12.50
2023-03-14T09:25:43.941Z,12.43
2023-03-14T09:28:10.648Z,12.21
2023-03-14T09:30:37.108Z,12.13
2023-03-14T09:33:04.032Z,12.06
2023-03-14T09:35:30.593Z,12.03
2023-03-14T09:37:57.280Z,11.88
2023-03-14T09:40:24.946Z,11.86
2023-03-14T09:42:52.996Z,11.72
2023-03-14T09:48:03.177Z,11.37
2023-03-14T09:50:53.326Z,11.37
2023-03-14T09:53:27.743Z,11.16
2023-03-14T09:55:56.100Z,11.03
2023-03-14T09:58:24.733Z,11.04
2023-03-14T10:00:55.170Z,10.93
2023-03-14T10:03:34.784Z,10.88
2023-03-14T10:06:01.880Z,10.79
2023-03-14T10:08:28.781Z,10.76
2023-03-14T10:10:55.736Z,10.28
2023-03-14T10:13:25.312Z,9.85
2023-03-14T10:15:54.658Z,9.51
2023-03-14T10:18:22.722Z,9.01
2023-03-14T10:20:50.811Z,8.88
2023-03-14T10:23:17.528Z,8.83
2023-03-14T10:26:16.125Z,8.87
2023-03-14T10:28:49.325Z,8.55
2023-03-14T10:31:16.351Z,8.40
2023-03-14T10:33:57.779Z,8.45
2023-03-14T10:36:29.225Z,8.27
2023-03-14T10:39:23.352Z,8.48
2023-03-14T10:41:54.558Z,8.59
2023-03-14T10:44:26.589Z,8.48
2023-03-14T10:46:59.516Z,8.30
2023-03-14T10:49:28.321Z,8.35
2023-03-14T10:51:54.996Z,8.31
2023-03-14T10:54:24.841Z,8.12
2023-03-14T10:57:01.404Z,8.19
2023-03-14T10:59:38.358Z,8.17
2023-03-14T11:02:28.259Z,8.12
2023-03-14T11:05:04.134Z,7.97
2023-03-14T11:07:37.571Z,7.95
2023-03-14T11:10:22.832Z,7.87
2023-03-14T11:13:08.985Z,7.84
2023-03-14T11:15:49.415Z,7.78
2023-03-14T11:18:22.147Z,7.82
2023-03-14T11:20:59.441Z,7.88
2023-03-14T11:23:51.698Z,8.01
2023-03-14T11:26:27.204Z,8.05
2023-03-14T11:29:28.593Z,8.07
2023-03-14T11:32:00.312Z,8.30
2023-03-14T11:37:40.884Z,8.59
2023-03-14T11:40:15.206Z,8.52
2023-03-14T11:42:44.684Z,8.81
2023-03-14T11:45:20.131Z,8.92
2023-03-14T11:47:54.348Z,8.61
2023-03-14T11:50:28.067Z,8.39
2023-03-14T11:53:15.981Z,8.51
2023-03-14T11:55:45.894Z,8.52
2023-03-14T11:58:19.110Z,8.98
2023-03-14T12:00:48.394Z,10.66
2023-03-14T12:03:27.158Z,9.92
2023-03-14T12:06:20.667Z,9.32
2023-03-14T12:09:02.940Z,9.52
2023-03-14T12:11:41.536Z,9.31
2023-03-14T12:14:31.266Z,9.10
2023-03-14T12:17:22.691Z,9.47
2023-03-14T12:20:02.016Z,9.47
2023-03-14T12:22:32.332Z,9.32
2023-03-14T12:25:06.910Z,9.60
2023-03-14T12:27:49.028Z,10.05
2023-03-14T12:30:42.148Z,10.41
2023-03-14T12:33:17.725Z,9.29
2023-03-14T12:35:49.646Z,8.64
2023-03-14T12:38:32.995Z,7.97
2023-03-14T12:41:21.045Z,7.46
2023-03-14T12:43:48.128Z,7.07
2023-03-14T12:46:27.879Z,6.70
2023-03-14T12:49:03.786Z,6.73
2023-03-14T12:51:38.801Z,6.61
2023-03-14T12:54:05.240Z,6.72
2023-03-14T12:56:53.376Z,6.86
2023-03-14T12:59:31.077Z,6.77
2023-03-14T13:02:24.626Z,6.81
2023-03-14T13:05:01.618Z,6.70
2023-03-14T13:07:34.712Z,6.86
2023-03-14T13:10:26.344Z,6.90
2023-03-14T13:13:05.712Z,6.92
2023-03-14T13:16:02.525Z,7.05
2023-03-14T13:18:46.597Z,7.38
2023-03-14T13:21:25.259Z,7.28
2023-03-14T13:24:07.717Z,7.47
2023-03-14T13:26:44.476Z,7.49
2023-03-14T13:29:23.525Z,7.08
2023-03-14T13:31:58.509Z,6.73
2023-03-14T13:34:31.016Z,6.66
2023-03-14T13:36:59.175Z,6.58
2023-03-14T13:39:29.943Z,6.66
2023-03-14T13:42:00.456Z,6.73
2023-03-14T13:44:36.042Z,6.70
2023-03-14T13:47:07.904Z,6.69
2023-03-14T13:49:48.486Z,6.69
2023-03-14T13:52:37.479Z,6.74
2023-03-14T13:55:06.763Z,6.38
2023-03-14T13:57:59.837Z,6.42
2023-03-14T14:00:34.787Z,6.25
2023-03-14T14:03:09.427Z,6.38
2023-03-14T14:08:27.967Z,6.59
2023-03-14T14:11:04.925Z,6.14
2023-03-14T14:13:34.457Z,5.50
2023-03-14T14:16:05.274Z,5.13
2023-03-14T14:18:34.094Z,5.02
2023-03-14T14:21:02.160Z,5.14
2023-03-14T14:23:35.780Z,5.40
2023-03-14T14:26:18.331Z,5.59
2023-03-14T14:28:46.816Z,5.79
2023-03-14T14:31:16.564Z,5.84
2023-03-14T14:33:46.421Z,5.70
2023-03-14T14:36:29.319Z,5.67
2023-03-14T14:39:09.444Z,5.59
2023-03-14T14:41:41.505Z,5.54
2023-03-14T14:44:08.926Z,5.30
2023-03-14T14:46:38.540Z,5.15
2023-03-14T14:49:18.968Z,5.10
2023-03-14T14:51:49.603Z,5.02
2023-03-14T14:55:04.896Z,4.95
2023-03-14T14:57:49.242Z,4.90
2023-03-14T15:00:24.686Z,4.65
2023-03-14T15:02:56.197Z,4.32
2023-03-14T15:05:25.868Z,4.28
2023-03-14T15:07:53.433Z,4.14
2023-03-14T15:10:23.947Z,4.14
2023-03-14T15:12:51.743Z,4.00
2023-03-14T15:15:19.055Z,3.94
2023-03-14T15:17:45.596Z,3.96
2023-03-14T15:20:15.939Z,4.15
2023-03-14T15:22:42.796Z,4.08
2023-03-14T15:25:18.643Z,4.09
2023-03-14T15:27:54.164Z,4.18
2023-03-14T15:30:20.783Z,4.18
2023-03-14T15:32:48.299Z,4.16
2023-03-14T15:35:17.760Z,4.19
2023-03-14T15:37:56.696Z,4.12
2023-03-14T15:40:25.827Z,4.17
2023-03-14T15:42:52.317Z,4.03
2023-03-14T15:45:18.962Z,4.07
2023-03-14T15:47:45.388Z,4.17
2023-03-14T15:50:12.546Z,4.16
2023-03-14T15:52:41.938Z,4.25
2023-03-14T15:55:09.424Z,4.23
2023-03-14T15:57:36.859Z,4.30
2023-03-14T16:00:12.394Z,4.33
2023-03-14T16:02:43.966Z,4.43
2023-03-14T16:05:10.909Z,4.53
2023-03-14T16:07:40.037Z,4.45
2023-03-14T16:10:09.905Z,4.41
2023-03-14T16:12:42.488Z,4.51
2023-03-14T16:15:10.354Z,4.51
2023-03-14T16:17:38.385Z,4.26
2023-03-14T16:20:06.030Z,4.31
2023-03-14T16:22:40.390Z,4.37
2023-03-14T16:25:08.613Z,4.44
2023-03-14T16:27:36.054Z,4.31
2023-03-14T16:30:04.922Z,4.38
2023-03-14T16:32:32.893Z,4.47
2023-03-14T16:40:20.470Z,4.32
2023-03-14T16:43:11.679Z,4.43
2023-03-14T16:45:37.850Z,4.31
2023-03-14T16:48:07.021Z,4.28
2023-03-14T16:50:33.579Z,4.10
2023-03-14T16:53:00.440Z,4.33
2023-03-14T16:55:29.234Z,4.15
2023-03-14T16:57:57.220Z,4.25
2023-03-14T17:00:24.783Z,4.14
2023-03-14T17:02:51.569Z,4.10
2023-03-14T17:08:09.568Z,4.33
2023-03-14T17:10:38.656Z,4.21
2023-03-14T17:13:05.885Z,4.30
2023-03-14T17:15:33.000Z,4.23
2023-03-14T17:18:13.879Z,4.14
2023-03-14T17:21:01.288Z,4.16
2023-03-14T17:29:11.342Z,4.15
2023-03-14T17:32:03.764Z,4.04
2023-03-14T17:34:50.255Z,4.23
2023-03-14T17:37:36.705Z,4.44
2023-03-14T17:40:23.953Z,4.31
2023-03-14T17:43:10.405Z,4.30
2023-03-14T17:46:01.793Z,4.42
2023-03-14T17:48:48.921Z,4.41
2023-03-14T17:51:19.346Z,4.31
2023-03-14T17:53:47.940Z,4.29
2023-03-14T17:56:17.362Z,4.32
2023-03-14T17:58:45.691Z,4.39
2023-03-14T18:01:15.855Z,4.52
2023-03-14T18:03:44.729Z,4.32
2023-03-14T18:06:13.265Z,4.45
2023-03-14T18:08:44.080Z,4.42
2023-03-14T18:11:11.785Z,4.40
2023-03-14T18:13:39.782Z,4.52
2023-03-14T18:16:07.710Z,4.52
2023-03-14T18:18:34.515Z,4.52
2023-03-14T18:21:00.940Z,4.60
2023-03-14T18:23:27.774Z,4.56
2023-03-14T18:25:54.620Z,4.57
2023-03-14T18:28:23.008Z,4.58
2023-03-14T18:30:52.518Z,4.54
2023-03-14T18:33:22.166Z,4.50
2023-03-14T18:35:53.167Z,4.45
2023-03-14T18:38:20.326Z,4.45
2023-03-14T18:40:47.041Z,4.36
2023-03-14T18:43:13.822Z,4.29
2023-03-14T18:45:40.219Z,4.27
2023-03-14T18:48:06.991Z,4.23
2023-03-14T18:50:33.632Z,4.26
2023-03-14T18:53:02.021Z,4.22
2023-03-14T18:55:28.990Z,4.19
2023-03-14T18:57:55.692Z,4.22
2023-03-14T19:00:22.354Z,4.20
2023-03-14T19:02:50.380Z,4.21
2023-03-14T19:05:17.236Z,4.27
2023-03-14T19:07:44.123Z,4.16
2023-03-14T19:10:11.274Z,4.21
2023-03-14T19:12:39.044Z,4.20
2023-03-14T19:15:07.146Z,4.18
2023-03-14T19:17:34.281Z,4.24
2023-03-14T19:20:00.839Z,4.27
2023-03-14T19:22:28.041Z,4.22
2023-03-14T19:25:04.169Z,4.16
2023-03-14T19:27:33.112Z,4.14
2023-03-14T19:29:59.743Z,4.01
2023-03-14T19:32:35.504Z,4.06
2023-03-14T19:38:13.965Z,4.00
2023-03-14T19:40:50.559Z,4.16
2023-03-14T19:43:17.304Z,4.15
2023-03-14T19:45:49.836Z,4.09
2023-03-14T19:48:16.808Z,4.13
2023-03-14T19:50:43.631Z,4.18
2023-03-14T19:53:11.227Z,4.16
2023-03-14T19:55:38.197Z,4.11
2023-03-14T19:58:05.331Z,4.14
2023-03-14T20:00:32.184Z,4.14
2023-03-14T20:02:58.983Z,4.17
2023-03-14T20:05:25.712Z,4.17
2023-03-14T20:07:52.643Z,4.14
2023-03-14T20:10:22.849Z,4.15
2023-03-14T20:12:50.900Z,4.13
2023-03-14T20:15:19.855Z,4.04
2023-03-14T20:17:51.186Z,4.06
2023-03-14T20:20:19.066Z,4.02
2023-03-14T20:22:46.982Z,4.01
2023-03-14T20:25:18.512Z,3.94
2023-03-14T20:27:46.694Z,3.98
2023-03-14T20:30:15.303Z,3.90
2023-03-14T20:32:42.978Z,3.91
2023-03-14T20:35:11.922Z,3.96
2023-03-14T20:37:39.323Z,3.87
2023-03-14T20:40:11.282Z,3.87
2023-03-14T20:42:39.106Z,3.81
2023-03-14T20:45:06.905Z,3.87
2023-03-14T20:47:35.304Z,3.81
2023-03-14T20:50:02.407Z,3.76
2023-03-14T20:52:29.153Z,3.66
2023-03-14T20:54:57.208Z,3.64
2023-03-14T20:57:25.039Z,3.62
2023-03-14T20:59:52.889Z,3.51
2023-03-14T21:02:19.430Z,3.49
2023-03-14T21:04:46.092Z,3.46
2023-03-14T21:07:12.670Z,3.37
2023-03-14T21:09:39.290Z,3.37
2023-03-14T21:12:05.973Z,3.35
2023-03-14T21:14:32.562Z,3.45
2023-03-14T21:17:00.746Z,3.28
2023-03-14T21:19:36.857Z,3.14
2023-03-14T21:22:05.923Z,3.14
2023-03-14T21:24:34.224Z,3.04
2023-03-14T21:27:00.873Z,2.97
2023-03-14T21:29:27.960Z,2.82
2023-03-14T21:31:55.918Z,2.83
2023-03-14T21:34:26.603Z,2.72
2023-03-14T21:36:54.469Z,2.63
2023-03-14T21:39:22.697Z,2.52
2023-03-14T21:41:49.224Z,2.38
2023-03-14T21:44:16.212Z,2.38
2023-03-14T21:46:45.860Z,2.50
2023-03-14T21:49:13.932Z,2.56
2023-03-14T21:51:41.489Z,2.57
2023-03-14T21:54:10.227Z,2.45
2023-03-14T21:56:37.788Z,2.47
2023-03-14T21:59:04.960Z,2.53
2023-03-14T22:01:32.474Z,2.47
2023-03-14T22:03:59.614Z,2.45
2023-03-14T22:06:26.722Z,2.45
2023-03-14T22:08:55.191Z,2.34
2023-03-14T22:11:23.463Z,2.17
2023-03-14T22:13:50.128Z,2.02
2023-03-14T22:16:16.732Z,1.95
2023-03-14T22:18:43.516Z,1.82
2023-03-14T22:21:10.021Z,1.84
2023-03-14T22:23:36.626Z,1.71
2023-03-14T22:26:03.379Z,1.92
2023-03-14T22:28:29.912Z,1.71
2023-03-14T22:30:56.305Z,1.48
2023-03-14T22:33:23.126Z,1.20
2023-03-14T22:35:51.753Z,1.21
2023-03-14T22:38:19.102Z,0.97
2023-03-14T22:40:45.865Z,1.02
2023-03-14T22:43:12.455Z,1.02
2023-03-14T22:45:39.821Z,0.97
2023-03-14T22:48:06.658Z,1.00
2023-03-14T22:50:34.252Z,1.05
2023-03-14T22:53:00.806Z,0.90
2023-03-14T22:55:27.277Z,0.85
2023-03-14T22:57:54.466Z,0.82
2023-03-14T23:00:22.469Z,0.90
2023-03-14T23:02:49.800Z,0.77
2023-03-14T23:05:16.786Z,0.72
2023-03-14T23:07:43.570Z,0.58
2023-03-14T23:10:10.847Z,0.51
2023-03-14T23:12:37.875Z,0.68
2023-03-14T23:15:07.213Z,0.67
2023-03-14T23:17:34.487Z,0.59
2023-03-14T23:20:01.394Z,0.59
2023-03-14T23:22:28.901Z,0.55
2023-03-14T23:24:55.559Z,0.52
2023-03-14T23:27:22.011Z,0.39
2023-03-14T23:29:49.582Z,0.40
2023-03-14T23:32:16.294Z,0.43
2023-03-14T23:34:44.085Z,0.41
2023-03-14T23:37:14.408Z,0.35
2023-03-14T23:39:44.253Z,0.33
2023-03-14T23:42:11.722Z,0.37
2023-03-14T23:44:38.604Z,0.41
2023-03-14T23:47:05.464Z,0.35
2023-03-14T23:49:32.364Z,0.36
2023-03-14T23:51:59.123Z,0.19
2023-03-14T23:54:25.862Z,0.27
2023-03-14T23:56:52.648Z,0.23
2023-03-14T23:59:19.258Z,0.24
